»·PEaware :: N811JS KUKI-KDVO

N811JS :: KUKI-KDVO

FLIGHT INFORMATION

Flight Status: Arrived
Operator: Privately registered:
United States
More flights under this callsign
Pilot: Jeff S. (14581)
Aircraft: AERMACCHI WARRIOR
(F260)
More flights by this aircraft type
Origin: KUKI Ukiah Mun
United States
Destination: KDVO Gnoss
United States
More flights between these airports :: More routes between these airports
Route: +GETER V494 STS
File this flight plan on PilotEdge
Remarks:
Altitude:
(Current/Filed)
7,000ft
Speed:
(Current/Filed)
200kts
Departed: 06-Dec-19 05:24 PM
Arrived: 06-Dec-19 05:56 PM
Distance/Time
Traveled:
66nm/0:32
Distance/Time
To Go:
Arrived

Flight Plot

Page will automatically refresh every two minutes.

Flight plan parsing failed; only flown route is shown


Map Options




Map Legend


Flown Route
Filed Route
Departure Airport
Arrival Airport
Navaid (VOR, NDB)
Fix

Horizontal Profiles

Position Reports

Time Latitude Longitude Heading Altitude Ground
Speed
06-Dec-19 17:00 39.125224 -123.202707 259 619ft 0kts
06-Dec-19 17:01 39.125224 -123.202707 259 619ft 0kts
06-Dec-19 17:03 39.125224 -123.202707 259 619ft 0kts
06-Dec-19 17:04 39.125224 -123.202707 259 619ft 0kts
06-Dec-19 17:05 39.125224 -123.202707 259 619ft 0kts
06-Dec-19 17:06 39.125224 -123.202707 259 619ft 0kts
06-Dec-19 17:07 39.125224 -123.202707 259 619ft 0kts
06-Dec-19 17:08 39.125224 -123.202707 259 619ft 0kts
06-Dec-19 17:09 39.125224 -123.202707 259 619ft 0kts
06-Dec-19 17:10 39.125224 -123.202707 259 619ft 0kts
06-Dec-19 17:11 39.125224 -123.202707 259 619ft 0kts
06-Dec-19 17:12 39.125224 -123.202707 259 619ft 0kts
06-Dec-19 17:13 39.125224 -123.202707 259 619ft 0kts
06-Dec-19 17:14 39.125224 -123.202707 259 619ft 0kts
06-Dec-19 17:15 39.125903 -123.202705 64 618ft 8kts
06-Dec-19 17:16 39.127378 -123.202326 350 615ft 12kts
06-Dec-19 17:17 39.132068 -123.203566 346 620ft 17kts
06-Dec-19 17:18 39.132824 -123.203766 343 620ft 0kts
06-Dec-19 17:19 39.132824 -123.203766 343 620ft 0kts
06-Dec-19 17:19 39.132824 -123.203766 343 620ft 0kts
06-Dec-19 17:21 39.132824 -123.203766 343 620ft 0kts
06-Dec-19 17:22 39.132824 -123.203766 343 620ft 0kts
06-Dec-19 17:22 39.133221 -123.202795 163 619ft 6kts
06-Dec-19 17:23 39.123837 -123.200228 162 896ft 73kts
06-Dec-19 17:25 39.092491 -123.186045 163 2047ft 113kts
06-Dec-19 17:25 39.065890 -123.175260 163 2909ft 117kts
06-Dec-19 17:26 39.037934 -123.156950 145 3897ft 106kts
06-Dec-19 17:27 39.016067 -123.133450 146 4883ft 93kts
06-Dec-19 17:28 38.994728 -123.110896 147 5614ft 110kts
06-Dec-19 17:29 38.968208 -123.083675 160 6142ft 122kts
06-Dec-19 17:30 38.935548 -123.069797 168 6639ft 122kts
06-Dec-19 17:31 38.902812 -123.057476 168 6977ft 129kts
06-Dec-19 17:32 38.867856 -123.041656 158 6982ft 144kts
06-Dec-19 17:33 38.833349 -123.019545 158 6985ft 141kts
06-Dec-19 17:34 38.798542 -122.997072 158 6980ft 140kts
06-Dec-19 17:35 38.764792 -122.975296 157 7056ft 136kts
06-Dec-19 17:36 38.728623 -122.952032 156 6785ft 148kts
06-Dec-19 17:37 38.690974 -122.927776 156 6297ft 152kts
06-Dec-19 17:38 38.654755 -122.904457 156 6046ft 135kts
06-Dec-19 17:39 38.619823 -122.882068 155 5582ft 140kts
06-Dec-19 17:40 38.584413 -122.859327 155 5099ft 142kts
06-Dec-19 17:41 38.549962 -122.837184 156 5048ft 125kts
06-Dec-19 17:42 38.517985 -122.816786 155 5047ft 122kts
06-Dec-19 17:43 38.487726 -122.794382 151 5051ft 124kts
06-Dec-19 17:44 38.457582 -122.770650 150 5048ft 125kts
06-Dec-19 17:45 38.427305 -122.746828 151 5048ft 125kts
06-Dec-19 17:46 38.392691 -122.719758 147 4207ft 156kts
06-Dec-19 17:47 38.349798 -122.685986 149 3177ft 188kts
06-Dec-19 17:48 38.307847 -122.653036 149 3068ft 151kts
06-Dec-19 17:49 38.278084 -122.629815 150 2857ft 113kts
06-Dec-19 17:50 38.251315 -122.609182 145 2380ft 104kts
06-Dec-19 17:51 38.230222 -122.592467 144 2011ft 80kts
06-Dec-19 17:52 38.206828 -122.582567 157 1487ft 93kts
06-Dec-19 17:53 38.180624 -122.572710 161 863ft 94kts
06-Dec-19 17:54 38.154995 -122.565151 151 342ft 80kts
06-Dec-19 17:55 38.141516 -122.555580 150 7ft 13kts
06-Dec-19 17:56 38.139817 -122.554953 328 7ft 0kts
06-Dec-19 17:57 38.139840 -122.554971 329 7ft 0kts
06-Dec-19 17:58 38.139711 -122.556745 259 7ft 1kts
06-Dec-19 17:59 38.139843 -122.557088 329 7ft 0kts
06-Dec-19 18:00 38.139843 -122.557088 329 7ft 0kts

Navigation Log

Ident Type
Flight plan parsing failed, navigation log unavailable